sensor_id;sensor_type;location;lat;lon;timestamp;pressure;altitude;pressure_sealevel;temperature
44429;BMP180;30134;47.866;-4.222;2023-03-26T00:01:16;100190.00;;;21.60
44429;BMP180;30134;47.866;-4.222;2023-03-26T00:03:42;100194.00;;;21.60
44429;BMP180;30134;47.866;-4.222;2023-03-26T00:06:15;100196.00;;;21.60
44429;BMP180;30134;47.866;-4.222;2023-03-26T00:08:44;100193.00;;;21.60
44429;BMP180;30134;47.866;-4.222;2023-03-26T00:11:13;100198.00;;;21.60
44429;BMP180;30134;47.866;-4.222;2023-03-26T00:13:39;100201.00;;;21.60
44429;BMP180;30134;47.866;-4.222;2023-03-26T00:16:15;100197.00;;;21.50
44429;BMP180;30134;47.866;-4.222;2023-03-26T00:18:43;100197.00;;;21.60
44429;BMP180;30134;47.866;-4.222;2023-03-26T00:21:13;100192.00;;;21.60
44429;BMP180;30134;47.866;-4.222;2023-03-26T00:23:40;100193.00;;;21.60
44429;BMP180;30134;47.866;-4.222;2023-03-26T00:26:06;100189.00;;;21.50
44429;BMP180;30134;47.866;-4.222;2023-03-26T00:28:37;100181.00;;;21.50
44429;BMP180;30134;47.866;-4.222;2023-03-26T00:31:07;100185.00;;;21.50
44429;BMP180;30134;47.866;-4.222;2023-03-26T00:33:34;100189.00;;;21.50
44429;BMP180;30134;47.866;-4.222;2023-03-26T00:36:06;100179.00;;;21.60
44429;BMP180;30134;47.866;-4.222;2023-03-26T00:38:34;100179.00;;;21.50
44429;BMP180;30134;47.866;-4.222;2023-03-26T00:41:06;100180.00;;;21.50
44429;BMP180;30134;47.866;-4.222;2023-03-26T00:43:35;100185.00;;;21.50
44429;BMP180;30134;47.866;-4.222;2023-03-26T00:46:02;100180.00;;;21.50
44429;BMP180;30134;47.866;-4.222;2023-03-26T00:48:28;100181.00;;;21.50
44429;BMP180;30134;47.866;-4.222;2023-03-26T00:50:55;100180.00;;;21.50
44429;BMP180;30134;47.866;-4.222;2023-03-26T00:53:22;100179.00;;;21.50
44429;BMP180;30134;47.866;-4.222;2023-03-26T00:55:48;100174.00;;;21.50
44429;BMP180;30134;47.866;-4.222;2023-03-26T00:58:15;100169.00;;;21.50
44429;BMP180;30134;47.866;-4.222;2023-03-26T01:01:01;100168.00;;;21.50
44429;BMP180;30134;47.866;-4.222;2023-03-26T01:03:33;100169.00;;;21.50
44429;BMP180;30134;47.866;-4.222;2023-03-26T01:08:45;100157.00;;;21.50
44429;BMP180;30134;47.866;-4.222;2023-03-26T01:11:23;100147.00;;;21.50
44429;BMP180;30134;47.866;-4.222;2023-03-26T01:13:56;100147.00;;;21.50
44429;BMP180;30134;47.866;-4.222;2023-03-26T01:16:35;100153.00;;;21.50
44429;BMP180;30134;47.866;-4.222;2023-03-26T01:19:11;100152.00;;;21.50
44429;BMP180;30134;47.866;-4.222;2023-03-26T01:21:38;100135.00;;;21.50
44429;BMP180;30134;47.866;-4.222;2023-03-26T01:24:07;100134.00;;;21.50
44429;BMP180;30134;47.866;-4.222;2023-03-26T01:30:15;100191.00;;;21.50
44429;BMP180;30134;47.866;-4.222;2023-03-26T01:38:40;100201.00;;;21.40
44429;BMP180;30134;47.866;-4.222;2023-03-26T01:42:01;100174.00;;;21.40
44429;BMP180;30134;47.866;-4.222;2023-03-26T01:44:40;100179.00;;;21.40
44429;BMP180;30134;47.866;-4.222;2023-03-26T01:47:10;100167.00;;;21.40
44429;BMP180;30134;47.866;-4.222;2023-03-26T01:49:37;100172.00;;;21.40
44429;BMP180;30134;47.866;-4.222;2023-03-26T01:52:22;100166.00;;;21.40
44429;BMP180;30134;47.866;-4.222;2023-03-26T01:54:53;100168.00;;;21.40
44429;BMP180;30134;47.866;-4.222;2023-03-26T01:58:01;100163.00;;;21.40
44429;BMP180;30134;47.866;-4.222;2023-03-26T02:00:41;100167.00;;;21.40
44429;BMP180;30134;47.866;-4.222;2023-03-26T02:03:29;100154.00;;;21.40
44429;BMP180;30134;47.866;-4.222;2023-03-26T02:06:30;100147.00;;;21.40
44429;BMP180;30134;47.866;-4.222;2023-03-26T02:09:09;100154.00;;;21.40
44429;BMP180;30134;47.866;-4.222;2023-03-26T02:11:37;100143.00;;;21.40
44429;BMP180;30134;47.866;-4.222;2023-03-26T02:14:07;100131.00;;;21.40
44429;BMP180;30134;47.866;-4.222;2023-03-26T02:16:33;100134.00;;;21.40
44429;BMP180;30134;47.866;-4.222;2023-03-26T02:18:59;100138.00;;;21.40
44429;BMP180;30134;47.866;-4.222;2023-03-26T02:21:27;100129.00;;;21.40
44429;BMP180;30134;47.866;-4.222;2023-03-26T02:23:56;100125.00;;;21.40
44429;BMP180;30134;47.866;-4.222;2023-03-26T02:26:31;100128.00;;;21.40
44429;BMP180;30134;47.866;-4.222;2023-03-26T02:28:58;100123.00;;;21.40
44429;BMP180;30134;47.866;-4.222;2023-03-26T02:31:24;100114.00;;;21.40
44429;BMP180;30134;47.866;-4.222;2023-03-26T02:33:53;100114.00;;;21.40
44429;BMP180;30134;47.866;-4.222;2023-03-26T02:36:21;100113.00;;;21.40
44429;BMP180;30134;47.866;-4.222;2023-03-26T02:38:53;100113.00;;;21.40
44429;BMP180;30134;47.866;-4.222;2023-03-26T02:41:19;100126.00;;;21.40
44429;BMP180;30134;47.866;-4.222;2023-03-26T02:43:46;100126.00;;;21.40
44429;BMP180;30134;47.866;-4.222;2023-03-26T02:46:15;100123.00;;;21.40
44429;BMP180;30134;47.866;-4.222;2023-03-26T02:48:41;100121.00;;;21.40
44429;BMP180;30134;47.866;-4.222;2023-03-26T02:51:07;100110.00;;;21.40
44429;BMP180;30134;47.866;-4.222;2023-03-26T02:53:33;100105.00;;;21.30
44429;BMP180;30134;47.866;-4.222;2023-03-26T02:56:02;100107.00;;;21.30
44429;BMP180;30134;47.866;-4.222;2023-03-26T02:58:28;100119.00;;;21.30
44429;BMP180;30134;47.866;-4.222;2023-03-26T03:00:55;100109.00;;;21.30
44429;BMP180;30134;47.866;-4.222;2023-03-26T03:03:24;100111.00;;;21.40
44429;BMP180;30134;47.866;-4.222;2023-03-26T03:05:54;100107.00;;;21.40
44429;BMP180;30134;47.866;-4.222;2023-03-26T03:08:22;100110.00;;;21.30
44429;BMP180;30134;47.866;-4.222;2023-03-26T03:11:13;100093.00;;;21.30
44429;BMP180;30134;47.866;-4.222;2023-03-26T03:13:40;100104.00;;;21.30
44429;BMP180;30134;47.866;-4.222;2023-03-26T03:16:07;100102.00;;;21.30
44429;BMP180;30134;47.866;-4.222;2023-03-26T03:18:33;100098.00;;;21.30
44429;BMP180;30134;47.866;-4.222;2023-03-26T03:20:59;100089.00;;;21.30
44429;BMP180;30134;47.866;-4.222;2023-03-26T03:23:25;100092.00;;;21.30
44429;BMP180;30134;47.866;-4.222;2023-03-26T03:25:51;100106.00;;;21.30
44429;BMP180;30134;47.866;-4.222;2023-03-26T03:28:17;100093.00;;;21.30
44429;BMP180;30134;47.866;-4.222;2023-03-26T03:30:44;100103.00;;;21.30
44429;BMP180;30134;47.866;-4.222;2023-03-26T03:33:10;100108.00;;;21.30
44429;BMP180;30134;47.866;-4.222;2023-03-26T03:35:37;100117.00;;;21.30
44429;BMP180;30134;47.866;-4.222;2023-03-26T03:38:04;100111.00;;;21.30
44429;BMP180;30134;47.866;-4.222;2023-03-26T03:40:30;100115.00;;;21.30
44429;BMP180;30134;47.866;-4.222;2023-03-26T03:42:56;100105.00;;;21.30
44429;BMP180;30134;47.866;-4.222;2023-03-26T03:45:22;100100.00;;;21.20
44429;BMP180;30134;47.866;-4.222;2023-03-26T03:47:48;100106.00;;;21.20
44429;BMP180;30134;47.866;-4.222;2023-03-26T03:50:15;100093.00;;;21.30
44429;BMP180;30134;47.866;-4.222;2023-03-26T03:52:41;100094.00;;;21.30
44429;BMP180;30134;47.866;-4.222;2023-03-26T03:55:07;100091.00;;;21.30
44429;BMP180;30134;47.866;-4.222;2023-03-26T03:57:39;100089.00;;;21.30
44429;BMP180;30134;47.866;-4.222;2023-03-26T04:00:06;100095.00;;;21.20
44429;BMP180;30134;47.866;-4.222;2023-03-26T04:02:37;100097.00;;;21.30
44429;BMP180;30134;47.866;-4.222;2023-03-26T04:05:04;100101.00;;;21.30
44429;BMP180;30134;47.866;-4.222;2023-03-26T04:07:31;100107.00;;;21.30
44429;BMP180;30134;47.866;-4.222;2023-03-26T04:10:00;100098.00;;;21.20
44429;BMP180;30134;47.866;-4.222;2023-03-26T04:12:29;100102.00;;;21.20
44429;BMP180;30134;47.866;-4.222;2023-03-26T04:14:56;100098.00;;;21.20
44429;BMP180;30134;47.866;-4.222;2023-03-26T04:17:22;100090.00;;;21.20
44429;BMP180;30134;47.866;-4.222;2023-03-26T04:19:49;100091.00;;;21.20
44429;BMP180;30134;47.866;-4.222;2023-03-26T04:22:18;100098.00;;;21.20
44429;BMP180;30134;47.866;-4.222;2023-03-26T04:24:45;100090.00;;;21.20
44429;BMP180;30134;47.866;-4.222;2023-03-26T04:27:18;100089.00;;;21.20
44429;BMP180;30134;47.866;-4.222;2023-03-26T04:29:47;100074.00;;;21.20
44429;BMP180;30134;47.866;-4.222;2023-03-26T04:32:32;100085.00;;;21.20
44429;BMP180;30134;47.866;-4.222;2023-03-26T04:35:00;100084.00;;;21.20
44429;BMP180;30134;47.866;-4.222;2023-03-26T04:40:01;100078.00;;;21.20
44429;BMP180;30134;47.866;-4.222;2023-03-26T04:42:35;100081.00;;;21.20
44429;BMP180;30134;47.866;-4.222;2023-03-26T04:45:06;100090.00;;;21.20
44429;BMP180;30134;47.866;-4.222;2023-03-26T04:47:32;100077.00;;;21.20
44429;BMP180;30134;47.866;-4.222;2023-03-26T04:50:06;100068.00;;;21.10
44429;BMP180;30134;47.866;-4.222;2023-03-26T04:52:33;100060.00;;;21.10
44429;BMP180;30134;47.866;-4.222;2023-03-26T04:54:59;100070.00;;;21.20
44429;BMP180;30134;47.866;-4.222;2023-03-26T04:57:40;100052.00;;;21.20
44429;BMP180;30134;47.866;-4.222;2023-03-26T05:00:14;100052.00;;;21.10
44429;BMP180;30134;47.866;-4.222;2023-03-26T05:02:42;100050.00;;;21.20
44429;BMP180;30134;47.866;-4.222;2023-03-26T05:05:09;100053.00;;;21.20
44429;BMP180;30134;47.866;-4.222;2023-03-26T05:07:35;100049.00;;;21.10
44429;BMP180;30134;47.866;-4.222;2023-03-26T05:10:02;100045.00;;;21.10
44429;BMP180;30134;47.866;-4.222;2023-03-26T05:12:29;100056.00;;;21.10
44429;BMP180;30134;47.866;-4.222;2023-03-26T05:14:55;100050.00;;;21.10
44429;BMP180;30134;47.866;-4.222;2023-03-26T05:17:22;100048.00;;;21.10
44429;BMP180;30134;47.866;-4.222;2023-03-26T05:19:49;100042.00;;;21.10
44429;BMP180;30134;47.866;-4.222;2023-03-26T05:22:17;100042.00;;;21.10
44429;BMP180;30134;47.866;-4.222;2023-03-26T05:24:43;100054.00;;;21.10
44429;BMP180;30134;47.866;-4.222;2023-03-26T05:27:14;100037.00;;;21.10
44429;BMP180;30134;47.866;-4.222;2023-03-26T05:29:42;100030.00;;;21.10
44429;BMP180;30134;47.866;-4.222;2023-03-26T05:32:09;100030.00;;;21.10
44429;BMP180;30134;47.866;-4.222;2023-03-26T05:34:37;100043.00;;;21.10
44429;BMP180;30134;47.866;-4.222;2023-03-26T05:37:04;100040.00;;;21.10
44429;BMP180;30134;47.866;-4.222;2023-03-26T05:39:32;100023.00;;;21.10
44429;BMP180;30134;47.866;-4.222;2023-03-26T05:41:58;100023.00;;;21.10
44429;BMP180;30134;47.866;-4.222;2023-03-26T05:44:24;100033.00;;;21.10
44429;BMP180;30134;47.866;-4.222;2023-03-26T05:46:50;100029.00;;;21.10
44429;BMP180;30134;47.866;-4.222;2023-03-26T05:49:16;100023.00;;;21.10
44429;BMP180;30134;47.866;-4.222;2023-03-26T05:51:42;100023.00;;;21.10
44429;BMP180;30134;47.866;-4.222;2023-03-26T05:54:08;100016.00;;;21.10
44429;BMP180;30134;47.866;-4.222;2023-03-26T05:56:34;100012.00;;;21.10
44429;BMP180;30134;47.866;-4.222;2023-03-26T05:59:00;100004.00;;;21.10
44429;BMP180;30134;47.866;-4.222;2023-03-26T06:01:26;100017.00;;;21.10
44429;BMP180;30134;47.866;-4.222;2023-03-26T06:03:54;100028.00;;;21.10
44429;BMP180;30134;47.866;-4.222;2023-03-26T06:06:20;100025.00;;;21.10
44429;BMP180;30134;47.866;-4.222;2023-03-26T06:08:49;100037.00;;;21.10
44429;BMP180;30134;47.866;-4.222;2023-03-26T06:11:17;100037.00;;;21.10
44429;BMP180;30134;47.866;-4.222;2023-03-26T06:13:45;100029.00;;;21.10
44429;BMP180;30134;47.866;-4.222;2023-03-26T06:16:13;100030.00;;;21.00
44429;BMP180;30134;47.866;-4.222;2023-03-26T06:18:39;100025.00;;;21.10
44429;BMP180;30134;47.866;-4.222;2023-03-26T06:21:06;100037.00;;;21.00
44429;BMP180;30134;47.866;-4.222;2023-03-26T06:23:32;100018.00;;;21.00
44429;BMP180;30134;47.866;-4.222;2023-03-26T06:25:59;100017.00;;;21.00
44429;BMP180;30134;47.866;-4.222;2023-03-26T06:28:25;100026.00;;;21.00
44429;BMP180;30134;47.866;-4.222;2023-03-26T06:30:51;100003.00;;;21.00
44429;BMP180;30134;47.866;-4.222;2023-03-26T06:33:17;100023.00;;;21.00
44429;BMP180;30134;47.866;-4.222;2023-03-26T06:35:44;100039.00;;;21.00
44429;BMP180;30134;47.866;-4.222;2023-03-26T06:38:11;100084.00;;;21.00
44429;BMP180;30134;47.866;-4.222;2023-03-26T06:40:38;100106.00;;;21.00
44429;BMP180;30134;47.866;-4.222;2023-03-26T06:43:05;100092.00;;;21.00
44429;BMP180;30134;47.866;-4.222;2023-03-26T06:45:32;100094.00;;;21.00
44429;BMP180;30134;47.866;-4.222;2023-03-26T06:47:58;100081.00;;;21.00
44429;BMP180;30134;47.866;-4.222;2023-03-26T06:50:26;100074.00;;;20.90
44429;BMP180;30134;47.866;-4.222;2023-03-26T06:52:55;100064.00;;;20.90
44429;BMP180;30134;47.866;-4.222;2023-03-26T06:55:22;100051.00;;;20.90
44429;BMP180;30134;47.866;-4.222;2023-03-26T06:57:53;100067.00;;;20.90
44429;BMP180;30134;47.866;-4.222;2023-03-26T07:00:21;100076.00;;;20.90
44429;BMP180;30134;47.866;-4.222;2023-03-26T07:02:47;100063.00;;;20.90
44429;BMP180;30134;47.866;-4.222;2023-03-26T07:05:13;100054.00;;;20.90
44429;BMP180;30134;47.866;-4.222;2023-03-26T07:07:39;100040.00;;;20.90
44429;BMP180;30134;47.866;-4.222;2023-03-26T07:10:06;100039.00;;;20.90
44429;BMP180;30134;47.866;-4.222;2023-03-26T07:12:33;100038.00;;;20.90
44429;BMP180;30134;47.866;-4.222;2023-03-26T07:15:01;100038.00;;;20.90
44429;BMP180;30134;47.866;-4.222;2023-03-26T07:17:28;100033.00;;;20.90
44429;BMP180;30134;47.866;-4.222;2023-03-26T07:19:54;100029.00;;;20.90
44429;BMP180;30134;47.866;-4.222;2023-03-26T07:22:22;100044.00;;;20.90
44429;BMP180;30134;47.866;-4.222;2023-03-26T07:24:49;100044.00;;;20.90
44429;BMP180;30134;47.866;-4.222;2023-03-26T07:33:03;100011.00;;;20.90
44429;BMP180;30134;47.866;-4.222;2023-03-26T07:39:04;100010.00;;;20.90
44429;BMP180;30134;47.866;-4.222;2023-03-26T07:46:53;99994.00;;;20.90
44429;BMP180;30134;47.866;-4.222;2023-03-26T07:49:19;99995.00;;;20.90
44429;BMP180;30134;47.866;-4.222;2023-03-26T07:51:47;99987.00;;;20.90
44429;BMP180;30134;47.866;-4.222;2023-03-26T07:54:14;99993.00;;;20.90
44429;BMP180;30134;47.866;-4.222;2023-03-26T07:57:05;99994.00;;;21.00
44429;BMP180;30134;47.866;-4.222;2023-03-26T08:00:00;99991.00;;;21.00
44429;BMP180;30134;47.866;-4.222;2023-03-26T08:06:11;99982.00;;;20.90
44429;BMP180;30134;47.866;-4.222;2023-03-26T08:09:05;99979.00;;;21.00
44429;BMP180;30134;47.866;-4.222;2023-03-26T08:12:00;99986.00;;;21.00
44429;BMP180;30134;47.866;-4.222;2023-03-26T08:17:28;100037.00;;;21.10
44429;BMP180;30134;47.866;-4.222;2023-03-26T08:20:28;100035.00;;;21.30
44429;BMP180;30134;47.866;-4.222;2023-03-26T08:23:16;100034.00;;;21.50
44429;BMP180;30134;47.866;-4.222;2023-03-26T08:26:16;100030.00;;;21.50
44429;BMP180;30134;47.866;-4.222;2023-03-26T08:29:05;100021.00;;;21.40
44429;BMP180;30134;47.866;-4.222;2023-03-26T08:31:42;100020.00;;;21.50
44429;BMP180;30134;47.866;-4.222;2023-03-26T08:34:11;100021.00;;;21.60
44429;BMP180;30134;47.866;-4.222;2023-03-26T08:36:38;100014.00;;;21.60
44429;BMP180;30134;47.866;-4.222;2023-03-26T08:39:06;100018.00;;;21.70
44429;BMP180;30134;47.866;-4.222;2023-03-26T08:41:59;100011.00;;;21.70
44429;BMP180;30134;47.866;-4.222;2023-03-26T08:54:09;99991.00;;;21.80
44429;BMP180;30134;47.866;-4.222;2023-03-26T09:00:02;99979.00;;;21.80
44429;BMP180;30134;47.866;-4.222;2023-03-26T09:35:50;99977.00;;;22.10
44429;BMP180;30134;47.866;-4.222;2023-03-26T09:41:16;99981.00;;;22.10
44429;BMP180;30134;47.866;-4.222;2023-03-26T09:50:24;99998.00;;;22.30
44429;BMP180;30134;47.866;-4.222;2023-03-26T09:53:25;100004.00;;;22.20
44429;BMP180;30134;47.866;-4.222;2023-03-26T10:16:52;100043.00;;;22.30
44429;BMP180;30134;47.866;-4.222;2023-03-26T10:22:47;100062.00;;;22.40
44429;BMP180;30134;47.866;-4.222;2023-03-26T10:31:04;100075.00;;;22.40
44429;BMP180;30134;47.866;-4.222;2023-03-26T10:34:03;100084.00;;;22.40
44429;BMP180;30134;47.866;-4.222;2023-03-26T10:40:37;100087.00;;;22.40
44429;BMP180;30134;47.866;-4.222;2023-03-26T10:46:02;100093.00;;;22.40
44429;BMP180;30134;47.866;-4.222;2023-03-26T10:51:35;100098.00;;;22.40
44429;BMP180;30134;47.866;-4.222;2023-03-26T10:54:44;100109.00;;;22.50
44429;BMP180;30134;47.866;-4.222;2023-03-26T10:57:51;100115.00;;;22.50
44429;BMP180;30134;47.866;-4.222;2023-03-26T11:00:20;100125.00;;;22.50
44429;BMP180;30134;47.866;-4.222;2023-03-26T11:03:19;100131.00;;;22.50
44429;BMP180;30134;47.866;-4.222;2023-03-26T11:34:57;100234.00;;;22.60
44429;BMP180;30134;47.866;-4.222;2023-03-26T11:37:32;100236.00;;;22.60
44429;BMP180;30134;47.866;-4.222;2023-03-26T11:40:02;100236.00;;;22.60
44429;BMP180;30134;47.866;-4.222;2023-03-26T11:42:31;100239.00;;;22.60
44429;BMP180;30134;47.866;-4.222;2023-03-26T11:45:22;100253.00;;;22.60
44429;BMP180;30134;47.866;-4.222;2023-03-26T11:48:05;100255.00;;;22.50
44429;BMP180;30134;47.866;-4.222;2023-03-26T11:50:40;100256.00;;;22.60
44429;BMP180;30134;47.866;-4.222;2023-03-26T11:53:15;100270.00;;;22.60
44429;BMP180;30134;47.866;-4.222;2023-03-26T11:56:07;100279.00;;;22.30
44429;BMP180;30134;47.866;-4.222;2023-03-26T11:59:13;100278.00;;;22.40
44429;BMP180;30134;47.866;-4.222;2023-03-26T12:01:58;100296.00;;;22.50
44429;BMP180;30134;47.866;-4.222;2023-03-26T12:04:42;100302.00;;;22.50
44429;BMP180;30134;47.866;-4.222;2023-03-26T12:07:34;100302.00;;;22.50
44429;BMP180;30134;47.866;-4.222;2023-03-26T12:10:09;100302.00;;;22.50
44429;BMP180;30134;47.866;-4.222;2023-03-26T12:12:46;100311.00;;;22.50
44429;BMP180;30134;47.866;-4.222;2023-03-26T12:15:21;100322.00;;;22.50
44429;BMP180;30134;47.866;-4.222;2023-03-26T12:17:54;100334.00;;;22.50
44429;BMP180;30134;47.866;-4.222;2023-03-26T12:23:03;100356.00;;;22.60
44429;BMP180;30134;47.866;-4.222;2023-03-26T12:25:33;100369.00;;;22.60
44429;BMP180;30134;47.866;-4.222;2023-03-26T12:30:51;100374.00;;;22.60
44429;BMP180;30134;47.866;-4.222;2023-03-26T12:33:32;100374.00;;;22.70
44429;BMP180;30134;47.866;-4.222;2023-03-26T12:36:16;100384.00;;;22.70
44429;BMP180;30134;47.866;-4.222;2023-03-26T12:38:44;100387.00;;;22.70
44429;BMP180;30134;47.866;-4.222;2023-03-26T12:41:13;100395.00;;;22.70
44429;BMP180;30134;47.866;-4.222;2023-03-26T12:43:49;100399.00;;;22.70
44429;BMP180;30134;47.866;-4.222;2023-03-26T12:46:29;100406.00;;;22.70
44429;BMP180;30134;47.866;-4.222;2023-03-26T12:49:04;100407.00;;;22.70
44429;BMP180;30134;47.866;-4.222;2023-03-26T12:51:53;100423.00;;;22.50
44429;BMP180;30134;47.866;-4.222;2023-03-26T12:57:42;100440.00;;;22.60
44429;BMP180;30134;47.866;-4.222;2023-03-26T13:03:34;100455.00;;;22.60
44429;BMP180;30134;47.866;-4.222;2023-03-26T13:06:40;100463.00;;;22.60
44429;BMP180;30134;47.866;-4.222;2023-03-26T13:09:47;100474.00;;;22.60
44429;BMP180;30134;47.866;-4.222;2023-03-26T13:15:39;100496.00;;;22.70
44429;BMP180;30134;47.866;-4.222;2023-03-26T13:18:27;100490.00;;;22.60
44429;BMP180;30134;47.866;-4.222;2023-03-26T13:33:31;100556.00;;;22.50
44429;BMP180;30134;47.866;-4.222;2023-03-26T13:36:38;100555.00;;;22.70
44429;BMP180;30134;47.866;-4.222;2023-03-26T13:39:26;100568.00;;;22.60
44429;BMP180;30134;47.866;-4.222;2023-03-26T13:42:20;100578.00;;;22.70
44429;BMP180;30134;47.866;-4.222;2023-03-26T13:45:55;100588.00;;;22.70
44429;BMP180;30134;47.866;-4.222;2023-03-26T13:48:27;100603.00;;;22.70
44429;BMP180;30134;47.866;-4.222;2023-03-26T13:51:21;100594.00;;;22.60
44429;BMP180;30134;47.866;-4.222;2023-03-26T13:54:08;100603.00;;;22.50
44429;BMP180;30134;47.866;-4.222;2023-03-26T13:56:46;100617.00;;;22.50
44429;BMP180;30134;47.866;-4.222;2023-03-26T13:59:21;100617.00;;;22.50
44429;BMP180;30134;47.866;-4.222;2023-03-26T14:01:59;100618.00;;;22.60
44429;BMP180;30134;47.866;-4.222;2023-03-26T14:04:35;100637.00;;;22.60
44429;BMP180;30134;47.866;-4.222;2023-03-26T14:07:23;100637.00;;;22.60
44429;BMP180;30134;47.866;-4.222;2023-03-26T14:10:07;100645.00;;;22.60
44429;BMP180;30134;47.866;-4.222;2023-03-26T14:15:41;100658.00;;;22.60
44429;BMP180;30134;47.866;-4.222;2023-03-26T14:32:28;100698.00;;;22.60
44429;BMP180;30134;47.866;-4.222;2023-03-26T14:38:45;100718.00;;;22.60
44429;BMP180;30134;47.866;-4.222;2023-03-26T14:42:01;100719.00;;;22.60
44429;BMP180;30134;47.866;-4.222;2023-03-26T14:47:55;100733.00;;;22.60
44429;BMP180;30134;47.866;-4.222;2023-03-26T14:51:01;100741.00;;;22.60
44429;BMP180;30134;47.866;-4.222;2023-03-26T14:53:37;100744.00;;;22.60
44429;BMP180;30134;47.866;-4.222;2023-03-26T15:27:45;100812.00;;;22.90
44429;BMP180;30134;47.866;-4.222;2023-03-26T15:34:11;100835.00;;;22.90
44429;BMP180;30134;47.866;-4.222;2023-03-26T15:37:45;100845.00;;;22.90
44429;BMP180;30134;47.866;-4.222;2023-03-26T15:40:26;100850.00;;;22.90
44429;BMP180;30134;47.866;-4.222;2023-03-26T15:43:15;100856.00;;;22.90
44429;BMP180;30134;47.866;-4.222;2023-03-26T15:45:52;100865.00;;;22.90
44429;BMP180;30134;47.866;-4.222;2023-03-26T15:49:11;100863.00;;;23.00
44429;BMP180;30134;47.866;-4.222;2023-03-26T15:54:49;100874.00;;;23.00
44429;BMP180;30134;47.866;-4.222;2023-03-26T16:00:17;100879.00;;;23.00
44429;BMP180;30134;47.866;-4.222;2023-03-26T16:03:18;100882.00;;;23.00
44429;BMP180;30134;47.866;-4.222;2023-03-26T16:09:36;100894.00;;;23.00
44429;BMP180;30134;47.866;-4.222;2023-03-26T16:20:46;100923.00;;;23.10
44429;BMP180;30134;47.866;-4.222;2023-03-26T16:36:42;100945.00;;;23.10
44429;BMP180;30134;47.866;-4.222;2023-03-26T16:39:39;100956.00;;;23.20
44429;BMP180;30134;47.866;-4.222;2023-03-26T16:42:28;100967.00;;;23.10
44429;BMP180;30134;47.866;-4.222;2023-03-26T16:45:31;100973.00;;;23.10
44429;BMP180;30134;47.866;-4.222;2023-03-26T16:51:29;100985.00;;;23.20
44429;BMP180;30134;47.866;-4.222;2023-03-26T16:57:23;100990.00;;;23.20
44429;BMP180;30134;47.866;-4.222;2023-03-26T17:08:26;101022.00;;;23.20
44429;BMP180;30134;47.866;-4.222;2023-03-26T17:11:13;101030.00;;;23.20
44429;BMP180;30134;47.866;-4.222;2023-03-26T17:16:47;101047.00;;;23.20
44429;BMP180;30134;47.866;-4.222;2023-03-26T17:19:23;101045.00;;;23.20
44429;BMP180;30134;47.866;-4.222;2023-03-26T17:24:58;101073.00;;;23.30
44429;BMP180;30134;47.866;-4.222;2023-03-26T17:30:29;101086.00;;;23.30
44429;BMP180;30134;47.866;-4.222;2023-03-26T17:41:11;101123.00;;;23.30
44429;BMP180;30134;47.866;-4.222;2023-03-26T17:43:44;101133.00;;;23.30
44429;BMP180;30134;47.866;-4.222;2023-03-26T17:46:32;101145.00;;;23.30
44429;BMP180;30134;47.866;-4.222;2023-03-26T17:49:25;101149.00;;;23.30
44429;BMP180;30134;47.866;-4.222;2023-03-26T17:52:19;101152.00;;;23.30
44429;BMP180;30134;47.866;-4.222;2023-03-26T17:54:50;101163.00;;;23.30
44429;BMP180;30134;47.866;-4.222;2023-03-26T17:57:23;101167.00;;;23.30
44429;BMP180;30134;47.866;-4.222;2023-03-26T17:59:56;101179.00;;;23.30
44429;BMP180;30134;47.866;-4.222;2023-03-26T18:02:39;101182.00;;;23.30
44429;BMP180;30134;47.866;-4.222;2023-03-26T18:05:14;101180.00;;;23.30
44429;BMP180;30134;47.866;-4.222;2023-03-26T18:11:09;101198.00;;;23.30
44429;BMP180;30134;47.866;-4.222;2023-03-26T18:16:48;101219.00;;;23.30
44429;BMP180;30134;47.866;-4.222;2023-03-26T18:19:19;101220.00;;;23.30
44429;BMP180;30134;47.866;-4.222;2023-03-26T18:22:06;101230.00;;;23.30
44429;BMP180;30134;47.866;-4.222;2023-03-26T18:24:40;101238.00;;;23.30
44429;BMP180;30134;47.866;-4.222;2023-03-26T18:27:17;101243.00;;;23.40
44429;BMP180;30134;47.866;-4.222;2023-03-26T18:32:23;101257.00;;;23.40
44429;BMP180;30134;47.866;-4.222;2023-03-26T18:35:00;101269.00;;;23.40
44429;BMP180;30134;47.866;-4.222;2023-03-26T18:37:32;101272.00;;;23.40
44429;BMP180;30134;47.866;-4.222;2023-03-26T18:40:18;101276.00;;;23.40
44429;BMP180;30134;47.866;-4.222;2023-03-26T18:42:55;101286.00;;;23.40
44429;BMP180;30134;47.866;-4.222;2023-03-26T18:45:30;101291.00;;;23.30
44429;BMP180;30134;47.866;-4.222;2023-03-26T18:48:26;101296.00;;;23.30
44429;BMP180;30134;47.866;-4.222;2023-03-26T18:50:59;101301.00;;;23.30
44429;BMP180;30134;47.866;-4.222;2023-03-26T18:53:29;101308.00;;;23.30
44429;BMP180;30134;47.866;-4.222;2023-03-26T18:55:59;101316.00;;;23.50
44429;BMP180;30134;47.866;-4.222;2023-03-26T18:58:34;101317.00;;;23.50
44429;BMP180;30134;47.866;-4.222;2023-03-26T19:01:09;101332.00;;;23.50
44429;BMP180;30134;47.866;-4.222;2023-03-26T19:03:40;101335.00;;;23.50
44429;BMP180;30134;47.866;-4.222;2023-03-26T19:06:12;101344.00;;;23.50
44429;BMP180;30134;47.866;-4.222;2023-03-26T19:08:43;101348.00;;;23.50
44429;BMP180;30134;47.866;-4.222;2023-03-26T19:11:11;101351.00;;;23.50
44429;BMP180;30134;47.866;-4.222;2023-03-26T19:13:39;101363.00;;;23.60
44429;BMP180;30134;47.866;-4.222;2023-03-26T19:16:21;101364.00;;;23.50
44429;BMP180;30134;47.866;-4.222;2023-03-26T19:18:49;101369.00;;;23.60
44429;BMP180;30134;47.866;-4.222;2023-03-26T19:21:19;101380.00;;;23.60
44429;BMP180;30134;47.866;-4.222;2023-03-26T19:23:48;101381.00;;;23.60
44429;BMP180;30134;47.866;-4.222;2023-03-26T19:26:16;101388.00;;;23.60
44429;BMP180;30134;47.866;-4.222;2023-03-26T19:28:48;101389.00;;;23.60
44429;BMP180;30134;47.866;-4.222;2023-03-26T19:31:35;101390.00;;;23.60
44429;BMP180;30134;47.866;-4.222;2023-03-26T19:36:55;101405.00;;;23.70
44429;BMP180;30134;47.866;-4.222;2023-03-26T19:39:50;101417.00;;;23.70
44429;BMP180;30134;47.866;-4.222;2023-03-26T19:42:27;101428.00;;;23.70
44429;BMP180;30134;47.866;-4.222;2023-03-26T19:45:02;101424.00;;;23.70
44429;BMP180;30134;47.866;-4.222;2023-03-26T19:47:40;101432.00;;;23.70
44429;BMP180;30134;47.866;-4.222;2023-03-26T19:50:28;101446.00;;;23.70